Time;durP1;ratioP1;P1;durP2;ratioP2;P2;SDS_P1;SDS_P2;PMS_P1;PMS_P2;Temp;Humidity;BMP_temperature;BMP_pressure;BME280_temperature;BME280_humidity;BME280_pressure;Samples;Min_cycle;Max_cycle;Signal;HPM_P1;HPM_P2
2023/06/01 11:16:45;;;;;;;14.43;12.57;;;29.40;45.80;;;;;;5054851;28;20640;-86
2023/06/01 11:19:16;;;;;;;12.83;11.57;;;29.10;45.20;;;;;;5045339;28;20422;-83
2023/06/01 11:21:43;;;;;;;15.43;11.83;;;28.80;46.00;;;;;;5057145;28;21079;-81
2023/06/01 11:24:12;;;;;;;13.60;12.37;;;29.80;44.40;;;;;;5062374;28;20410;-81
2023/06/01 11:26:46;;;;;;;14.10;11.20;;;31.00;43.50;;;;;;5070793;28;20441;-81
2023/06/01 11:29:15;;;;;;;12.83;11.70;;;31.50;42.90;;;;;;5075601;28;20443;-81
2023/06/01 11:31:49;;;;;;;10.80;10.10;;;32.10;42.50;;;;;;5050381;28;20434;-82
2023/06/01 11:34:18;;;;;;;11.63;10.67;;;33.20;41.70;;;;;;5042727;28;20789;-84
2023/06/01 11:36:47;;;;;;;11.10;10.30;;;33.50;41.20;;;;;;5051566;28;20417;-84
2023/06/01 11:39:24;;;;;;;12.47;11.30;;;33.30;41.50;;;;;;5044924;28;20772;-81
2023/06/01 11:42:04;;;;;;;12.07;10.97;;;32.70;40.60;;;;;;5035113;28;20430;-84
2023/06/01 11:44:30;;;;;;;11.47;10.60;;;31.80;41.20;;;;;;5033770;28;20520;-84
2023/06/01 11:47:00;;;;;;;12.93;11.53;;;31.90;41.20;;;;;;5043156;28;20429;-83
2023/06/01 11:49:27;;;;;;;12.80;11.60;;;31.30;41.20;;;;;;5028552;28;20484;-82
2023/06/01 11:51:56;;;;;;;12.93;12.07;;;30.50;41.90;;;;;;5043123;28;20825;-84
2023/06/01 11:54:28;;;;;;;14.40;13.20;;;30.90;42.10;;;;;;5027172;28;20438;-83
2023/06/01 11:56:55;;;;;;;13.10;11.77;;;31.60;42.10;;;;;;5036885;28;20419;-81
2023/06/01 11:59:21;;;;;;;12.37;11.00;;;31.20;42.00;;;;;;5037961;28;20541;-85
2023/06/01 12:01:48;;;;;;;13.73;12.43;;;31.30;41.90;;;;;;5036923;28;20418;-82
2023/06/01 12:04:15;;;;;;;12.70;11.50;;;30.10;42.40;;;;;;5041614;28;20432;-82
2023/06/01 12:06:41;;;;;;;12.67;11.60;;;30.30;43.00;;;;;;5031575;28;20505;-81
2023/06/01 12:09:07;;;;;;;10.90;10.00;;;31.00;43.00;;;;;;5035297;28;20477;-80
2023/06/01 12:11:34;;;;;;;11.57;10.57;;;32.00;42.50;;;;;;5026181;28;20948;-86
2023/06/01 12:14:01;;;;;;;11.60;10.70;;;32.60;42.00;;;;;;5043397;28;20483;-86
2023/06/01 12:16:58;;;;;;;13.37;12.10;;;32.50;41.60;;;;;;5033691;28;20529;-81
2023/06/01 12:19:26;;;;;;;9.83;9.10;;;31.20;41.90;;;;;;5043998;28;20419;-87
2023/06/01 12:21:54;;;;;;;11.13;10.03;;;32.00;42.10;;;;;;5036299;28;20449;-84
2023/06/01 12:24:33;;;;;;;11.77;10.60;;;32.20;41.60;;;;;;5027845;28;20872;-88
2023/06/01 12:27:11;;;;;;;10.67;9.67;;;31.70;41.80;;;;;;5016861;28;20418;-85
2023/06/01 12:29:41;;;;;;;11.40;10.47;;;31.70;41.60;;;;;;5009529;28;20443;-84
2023/06/01 12:32:07;;;;;;;10.50;9.70;;;32.30;41.00;;;;;;5028702;28;20781;-85
2023/06/01 12:34:35;;;;;;;11.60;10.50;;;31.90;41.40;;;;;;5020116;28;20503;-81
2023/06/01 12:37:20;;;;;;;13.20;11.90;;;32.50;41.30;;;;;;5013435;28;20420;-86
2023/06/01 12:39:56;;;;;;;10.50;9.83;;;32.40;40.70;;;;;;5022309;28;20451;-85
2023/06/01 12:42:38;;;;;;;10.50;9.57;;;31.90;41.10;;;;;;5011461;28;20455;-81
2023/06/01 12:45:07;;;;;;;10.90;10.30;;;32.30;41.40;;;;;;5002155;28;20447;-83
2023/06/01 12:47:40;;;;;;;10.17;9.40;;;32.80;40.40;;;;;;5010896;28;20546;-83
2023/06/01 12:50:11;;;;;;;9.53;9.03;;;33.10;40.50;;;;;;5012559;28;20416;-84
2023/06/01 12:52:39;;;;;;;10.23;9.17;;;33.30;40.50;;;;;;5003172;28;20448;-84
2023/06/01 12:55:06;;;;;;;10.27;9.37;;;33.60;40.60;;;;;;5010530;28;20474;-83
2023/06/01 12:57:34;;;;;;;8.97;8.30;;;33.70;39.80;;;;;;5016931;28;20446;-83
2023/06/01 12:59:59;;;;;;;9.27;8.50;;;33.10;40.10;;;;;;5010323;28;20446;-83
2023/06/01 13:02:25;;;;;;;9.67;8.70;;;33.20;40.30;;;;;;5018786;28;20431;-82
2023/06/01 13:04:53;;;;;;;10.90;8.43;;;33.60;40.00;;;;;;5001100;28;20689;-81
2023/06/01 13:07:18;;;;;;;12.40;9.60;;;34.00;39.60;;;;;;5012305;28;20441;-82
2023/06/01 13:09:44;;;;;;;10.57;9.57;;;32.10;39.80;;;;;;5011675;28;21089;-80
2023/06/01 13:12:10;;;;;;;10.97;10.20;;;31.40;40.70;;;;;;5027165;28;20489;-83
2023/06/01 13:14:36;;;;;;;9.33;8.40;;;30.50;41.50;;;;;;5012072;28;20223;-80
2023/06/01 13:17:05;;;;;;;9.43;8.70;;;31.30;41.60;;;;;;5022427;28;20853;-78
2023/06/01 13:19:30;;;;;;;9.73;9.03;;;31.50;41.50;;;;;;5028833;28;20274;-79
2023/06/01 13:21:56;;;;;;;10.00;9.00;;;32.10;40.90;;;;;;5037750;28;20422;-80
2023/06/01 13:24:22;;;;;;;8.47;7.87;;;31.80;41.10;;;;;;5042592;28;20180;-81
2023/06/01 13:26:47;;;;;;;9.37;8.57;;;32.00;41.00;;;;;;5026036;28;20196;-78
2023/06/01 13:29:13;;;;;;;9.80;9.00;;;31.20;41.10;;;;;;5016052;28;20477;-79
2023/06/01 13:31:39;;;;;;;11.50;10.30;;;29.90;42.20;;;;;;5021500;28;20559;-80
2023/06/01 13:34:05;;;;;;;10.77;9.87;;;30.00;42.30;;;;;;5014060;28;20204;-82
2023/06/01 13:36:31;;;;;;;9.57;8.83;;;30.10;42.30;;;;;;5021730;28;20295;-82
2023/06/01 13:38:57;;;;;;;10.57;9.77;;;30.80;41.90;;;;;;5019034;28;20471;-81
2023/06/01 13:41:23;;;;;;;10.53;9.63;;;30.30;41.70;;;;;;5024239;28;20430;-81
2023/06/01 13:43:48;;;;;;;11.17;9.77;;;29.50;43.00;;;;;;5007012;28;20828;-81
2023/06/01 13:46:14;;;;;;;9.93;9.03;;;29.10;43.40;;;;;;5006075;28;20593;-78
2023/06/01 13:48:40;;;;;;;10.03;9.20;;;29.80;43.40;;;;;;5002389;28;20223;-80
2023/06/01 13:51:06;;;;;;;9.23;8.57;;;30.40;42.40;;;;;;5005194;28;20447;-80
2023/06/01 13:53:32;;;;;;;9.70;8.73;;;30.80;42.40;;;;;;4998599;28;20198;-82
2023/06/01 13:55:59;;;;;;;12.30;11.40;;;31.30;42.10;;;;;;5017758;28;20211;-81
2023/06/01 13:58:24;;;;;;;11.10;10.10;;;29.70;42.10;;;;;;5010654;28;20723;-81
2023/06/01 14:00:50;;;;;;;9.80;8.87;;;28.20;43.30;;;;;;5016491;28;20439;-79
2023/06/01 14:03:16;;;;;;;9.40;8.80;;;28.50;43.90;;;;;;5002732;28;20879;-79
2023/06/01 14:05:41;;;;;;;10.27;9.27;;;28.50;43.30;;;;;;5007079;28;20310;-78
2023/06/01 14:08:08;;;;;;;9.53;8.77;;;28.40;43.40;;;;;;4998128;28;20576;-79
2023/06/01 14:10:34;;;;;;;8.50;7.83;;;28.20;43.20;;;;;;5006913;28;20234;-78
2023/06/01 14:13:00;;;;;;;9.10;8.40;;;28.70;42.90;;;;;;4993789;28;20455;-78
2023/06/01 14:15:26;;;;;;;9.80;9.07;;;29.40;42.60;;;;;;5018383;28;20719;-80
2023/06/01 14:17:52;;;;;;;8.63;7.77;;;29.60;42.60;;;;;;5019880;28;20529;-80
2023/06/01 14:20:17;;;;;;;8.30;7.80;;;30.20;41.60;;;;;;4998468;28;20539;-80
2023/06/01 14:22:43;;;;;;;9.23;8.53;;;30.70;41.30;;;;;;5008332;28;20192;-83
2023/06/01 14:25:09;;;;;;;8.40;7.80;;;30.70;41.10;;;;;;5002487;28;20518;-80
2023/06/01 14:27:37;;;;;;;9.43;8.50;;;30.90;41.20;;;;;;4997097;28;20208;-81
2023/06/01 14:30:04;;;;;;;9.30;8.70;;;31.20;41.30;;;;;;5004967;28;20435;-81
2023/06/01 14:32:30;;;;;;;9.77;9.20;;;30.90;41.10;;;;;;4999365;28;20937;-81
2023/06/01 14:34:56;;;;;;;9.17;8.47;;;30.30;41.60;;;;;;5004209;28;20924;-83
2023/06/01 14:37:22;;;;;;;10.20;9.50;;;29.90;42.00;;;;;;5017113;28;20431;-81
2023/06/01 14:39:49;;;;;;;8.87;8.17;;;29.10;42.00;;;;;;5006245;28;20196;-81
2023/06/01 14:42:15;;;;;;;8.80;8.00;;;29.00;42.00;;;;;;4998813;28;20280;-79
2023/06/01 14:44:41;;;;;;;9.30;8.47;;;29.10;41.80;;;;;;5002478;28;20471;-80
2023/06/01 14:47:06;;;;;;;9.13;8.30;;;28.90;42.00;;;;;;5003062;28;20467;-81
2023/06/01 14:49:33;;;;;;;8.67;8.03;;;28.70;41.90;;;;;;5006467;28;20208;-83
2023/06/01 14:51:58;;;;;;;9.10;7.67;;;28.30;42.30;;;;;;5009477;28;20223;-81
2023/06/01 14:54:24;;;;;;;9.20;8.50;;;27.90;43.20;;;;;;5004992;28;20686;-83
2023/06/01 14:56:50;;;;;;;10.30;9.30;;;27.10;43.30;;;;;;5008282;28;20180;-82
2023/06/01 14:59:15;;;;;;;11.83;9.30;;;26.20;44.30;;;;;;5002927;28;20442;-80
2023/06/01 15:01:41;;;;;;;10.33;8.30;;;25.70;44.40;;;;;;5009104;28;20680;-79
2023/06/01 15:04:07;;;;;;;8.53;7.83;;;25.20;45.00;;;;;;5008335;28;20256;-83
2023/06/01 15:06:33;;;;;;;9.83;8.87;;;25.10;45.70;;;;;;5006902;28;20505;-79
2023/06/01 15:08:58;;;;;;;9.63;8.80;;;25.00;46.40;;;;;;5003837;28;20204;-81
2023/06/01 15:11:25;;;;;;;9.30;8.70;;;24.50;46.60;;;;;;5014057;28;20675;-80
2023/06/01 15:13:51;;;;;;;11.03;9.53;;;24.50;47.10;;;;;;5012034;28;20261;-79
2023/06/01 15:18:54;;;;;;;13.50;8.53;;;24.10;48.30;;;;;;5043558;22;20219;-88
2023/06/01 15:21:22;;;;;;;9.10;8.20;;;24.10;48.50;;;;;;5033853;28;20464;-91
2023/06/01 15:23:47;;;;;;;8.20;7.50;;;26.00;49.60;;;;;;5018957;28;20469;-87
2023/06/01 15:26:13;;;;;;;10.53;9.70;;;24.00;49.30;;;;;;5020409;28;20514;-90
2023/06/01 15:28:39;;;;;;;8.63;7.97;;;25.40;49.50;;;;;;5016625;28;20470;-92
2023/06/01 15:31:13;;;;;;;10.97;9.30;;;24.70;48.10;;;;;;5016897;28;20263;-93
2023/06/01 15:33:50;;;;;;;7.40;7.00;;;23.20;48.30;;;;;;5032211;28;20238;-94
2023/06/01 15:38:47;;;;;;;9.70;7.30;;;23.90;47.50;;;;;;5055165;22;20928;-79
2023/06/01 15:41:13;;;;;;;7.53;6.83;;;23.90;47.20;;;;;;5053119;28;20433;-82
2023/06/01 15:43:38;;;;;;;8.40;7.10;;;23.80;46.60;;;;;;5064605;28;20214;-80
2023/06/01 15:46:05;;;;;;;8.83;7.80;;;23.70;47.00;;;;;;5061867;28;20615;-79
2023/06/01 15:48:31;;;;;;;7.77;7.17;;;23.70;46.80;;;;;;5065568;28;20255;-80
2023/06/01 15:50:57;;;;;;;8.27;7.37;;;23.80;47.10;;;;;;5062111;28;20499;-79
2023/06/01 15:53:23;;;;;;;8.03;7.43;;;23.80;46.70;;;;;;5065253;28;20455;-78
2023/06/01 15:55:49;;;;;;;9.03;8.23;;;23.60;46.80;;;;;;5072993;28;21101;-81
2023/06/01 15:58:17;;;;;;;9.60;8.47;;;23.40;47.60;;;;;;5060092;28;20259;-80
2023/06/01 16:00:42;;;;;;;7.50;6.70;;;23.30;47.90;;;;;;5072567;28;20497;-80
2023/06/01 16:03:08;;;;;;;12.13;7.27;;;23.30;47.70;;;;;;5065850;28;20444;-83
2023/06/01 16:05:34;;;;;;;8.07;7.30;;;23.30;47.50;;;;;;5068380;28;20221;-81
2023/06/01 16:07:59;;;;;;;7.23;6.63;;;23.30;48.10;;;;;;5066546;28;20194;-81
2023/06/01 16:10:25;;;;;;;10.00;6.03;;;23.30;48.30;;;;;;5080409;28;20178;-81
2023/06/01 16:12:51;;;;;;;8.93;7.40;;;23.30;48.30;;;;;;5076682;28;20196;-80
2023/06/01 16:15:16;;;;;;;7.77;7.00;;;23.30;48.70;;;;;;5073851;28;20368;-80
2023/06/01 16:17:42;;;;;;;8.00;7.33;;;23.20;49.10;;;;;;5065788;28;20714;-79
2023/06/01 16:20:08;;;;;;;9.00;8.30;;;23.20;49.20;;;;;;5077338;28;20539;-84
2023/06/01 16:22:34;;;;;;;9.03;8.13;;;23.10;48.80;;;;;;5068225;28;20214;-86
2023/06/01 16:25:00;;;;;;;8.70;7.93;;;23.00;48.80;;;;;;5068027;28;20440;-80
2023/06/01 16:27:26;;;;;;;7.77;7.00;;;22.90;49.30;;;;;;5058584;28;20187;-80
2023/06/01 16:29:51;;;;;;;7.43;6.70;;;22.90;49.30;;;;;;5066075;28;20911;-79
2023/06/01 16:32:17;;;;;;;8.73;7.17;;;22.90;49.50;;;;;;5067723;28;20185;-80
2023/06/01 16:34:43;;;;;;;7.23;6.83;;;23.00;49.40;;;;;;5077273;28;20207;-80
2023/06/01 16:37:08;;;;;;;7.97;7.20;;;22.90;49.40;;;;;;5064375;28;20357;-78
2023/06/01 16:39:34;;;;;;;9.17;7.43;;;22.80;49.60;;;;;;5068281;28;20187;-80
2023/06/01 16:42:00;;;;;;;13.23;11.83;;;22.60;50.00;;;;;;5069167;28;20260;-82
2023/06/01 16:44:26;;;;;;;8.07;7.27;;;22.40;50.40;;;;;;5056388;28;20649;-82
2023/06/01 16:46:52;;;;;;;7.77;6.90;;;22.50;50.90;;;;;;5071113;28;20212;-81
2023/06/01 16:49:18;;;;;;;7.87;7.10;;;22.70;50.70;;;;;;5066375;28;20574;-83
2023/06/01 16:51:44;;;;;;;9.07;7.83;;;23.20;51.00;;;;;;5058504;28;20732;-82
2023/06/01 16:54:10;;;;;;;12.00;8.77;;;22.50;51.20;;;;;;5065469;28;20933;-83
2023/06/01 16:56:35;;;;;;;8.37;7.73;;;22.40;51.20;;;;;;5063682;28;20509;-83
2023/06/01 16:59:02;;;;;;;12.53;8.60;;;22.50;51.30;;;;;;5061494;28;20193;-80
2023/06/01 17:01:27;;;;;;;8.57;7.80;;;22.40;51.30;;;;;;5075977;28;20254;-83
2023/06/01 17:03:53;;;;;;;7.63;7.00;;;22.10;51.60;;;;;;5073898;28;20751;-79
2023/06/01 17:06:20;;;;;;;8.93;7.53;;;21.30;51.50;;;;;;5065006;28;20204;-80
2023/06/01 17:08:46;;;;;;;8.93;8.10;;;22.10;52.00;;;;;;5067118;28;20646;-83
2023/06/01 17:11:12;;;;;;;9.40;8.70;;;22.00;51.80;;;;;;5064008;28;20472;-82
2023/06/01 17:13:37;;;;;;;7.43;6.80;;;22.00;51.90;;;;;;5065196;28;20720;-82
2023/06/01 17:16:06;;;;;;;8.73;7.80;;;22.10;51.80;;;;;;5064168;28;20242;-81
2023/06/01 17:18:32;;;;;;;11.07;6.97;;;21.90;52.20;;;;;;5063795;28;20193;-84
2023/06/01 17:20:58;;;;;;;10.07;6.70;;;22.00;52.60;;;;;;5065466;28;20456;-83
2023/06/01 17:23:23;;;;;;;6.97;6.40;;;21.90;52.50;;;;;;5076970;28;20189;-84
2023/06/01 17:25:49;;;;;;;6.57;5.97;;;22.10;53.20;;;;;;5060008;28;20198;-82
2023/06/01 17:28:15;;;;;;;7.90;6.97;;;22.00;54.40;;;;;;5065566;28;20441;-83
2023/06/01 17:30:41;;;;;;;8.10;6.77;;;21.90;55.50;;;;;;5066057;28;20448;-82
2023/06/01 17:33:08;;;;;;;9.93;6.90;;;21.70;56.10;;;;;;5057212;28;20264;-84
2023/06/01 17:35:34;;;;;;;8.23;7.00;;;21.60;56.40;;;;;;5065234;28;20241;-82
2023/06/01 17:38:00;;;;;;;7.93;6.03;;;21.50;57.00;;;;;;5067006;28;20469;-83
2023/06/01 17:40:25;;;;;;;8.03;7.23;;;21.20;57.30;;;;;;5063236;28;20448;-81
2023/06/01 17:42:51;;;;;;;6.40;6.03;;;20.90;58.00;;;;;;5063712;28;20189;-85
2023/06/01 17:45:17;;;;;;;6.50;5.97;;;20.90;58.80;;;;;;5085877;28;20417;-84
2023/06/01 17:47:42;;;;;;;7.10;6.70;;;20.80;59.00;;;;;;5083072;28;20206;-81
2023/06/01 17:50:08;;;;;;;6.33;5.93;;;20.60;59.50;;;;;;5079036;28;20190;-81
2023/06/01 17:52:34;;;;;;;6.47;6.03;;;20.50;59.70;;;;;;5067999;28;20186;-83
2023/06/01 17:54:59;;;;;;;6.00;5.70;;;20.40;60.40;;;;;;5069038;28;20210;-84
2023/06/01 17:57:25;;;;;;;6.60;6.10;;;20.30;61.50;;;;;;5069230;28;20508;-80
2023/06/01 17:59:51;;;;;;;8.07;7.40;;;20.20;62.30;;;;;;5067208;28;20194;-83
2023/06/01 18:02:17;;;;;;;7.20;6.80;;;20.10;63.40;;;;;;5082482;28;20269;-82
2023/06/01 18:04:42;;;;;;;8.10;6.83;;;20.10;64.20;;;;;;5065584;28;20276;-82
2023/06/01 18:07:08;;;;;;;6.80;6.30;;;20.00;64.90;;;;;;5067589;28;20209;-83
2023/06/01 18:09:33;;;;;;;7.47;6.97;;;20.00;65.50;;;;;;5063421;28;20259;-82
2023/06/01 18:11:59;;;;;;;7.33;6.60;;;19.90;66.00;;;;;;5082741;28;20184;-83
2023/06/01 18:14:25;;;;;;;7.10;6.50;;;19.90;66.80;;;;;;5068884;28;20683;-91
2023/06/01 18:16:51;;;;;;;7.03;6.40;;;20.00;66.90;;;;;;5074515;28;20452;-82
2023/06/01 18:19:17;;;;;;;8.27;6.57;;;20.00;67.30;;;;;;5067673;28;20440;-83
2023/06/01 18:21:43;;;;;;;7.23;6.67;;;19.80;68.20;;;;;;5054621;28;20194;-82
2023/06/01 18:24:11;;;;;;;6.20;5.80;;;19.70;68.50;;;;;;5058152;28;20429;-84
2023/06/01 18:26:37;;;;;;;6.87;6.17;;;20.30;71.10;;;;;;5063408;28;20484;-84
2023/06/01 18:29:02;;;;;;;7.77;6.80;;;18.90;69.70;;;;;;5071418;28;20460;-82
2023/06/01 18:31:28;;;;;;;18.23;8.77;;;19.40;70.70;;;;;;5066690;28;20206;-83
2023/06/01 18:33:53;;;;;;;9.53;7.93;;;19.00;71.50;;;;;;5078073;28;20219;-84
2023/06/01 18:36:19;;;;;;;7.70;7.10;;;18.70;71.70;;;;;;5067572;28;20210;-84
2023/06/01 18:38:48;;;;;;;7.37;6.77;;;18.90;73.20;;;;;;5074175;28;20671;-79
2023/06/01 18:41:15;;;;;;;8.50;6.13;;;18.90;74.60;;;;;;5060721;28;20212;-80
2023/06/01 18:43:40;;;;;;;6.77;6.40;;;19.00;74.20;;;;;;5065963;28;21041;-80
2023/06/01 18:46:06;;;;;;;6.70;6.27;;;18.70;73.60;;;;;;5070127;28;20524;-79
2023/06/01 18:48:32;;;;;;;7.60;7.00;;;19.30;75.10;;;;;;5065316;28;20691;-79
2023/06/01 18:51:00;;;;;;;8.43;7.73;;;18.90;74.90;;;;;;5062900;28;20259;-80
2023/06/01 18:53:26;;;;;;;7.10;6.60;;;18.70;74.90;;;;;;5067397;28;20178;-85
2023/06/01 18:55:55;;;;;;;7.07;6.57;;;18.60;75.10;;;;;;5066883;28;20506;-84
2023/06/01 18:58:20;;;;;;;6.13;5.50;;;18.70;75.30;;;;;;5069753;28;20417;-85
2023/06/01 19:00:46;;;;;;;8.27;7.73;;;18.50;75.80;;;;;;5062807;28;20464;-83
2023/06/01 19:03:14;;;;;;;7.97;7.23;;;18.40;76.40;;;;;;5061251;28;20216;-83
2023/06/01 19:05:40;;;;;;;7.47;6.67;;;19.40;79.10;;;;;;5052627;28;20215;-86
2023/06/01 19:08:07;;;;;;;6.93;6.37;;;18.30;78.50;;;;;;5064020;28;20460;-86
2023/06/01 19:10:59;;;;;;;6.67;6.17;;;17.30;77.20;;;;;;5061327;28;20442;-85
2023/06/01 19:13:42;;;;;;;15.97;7.03;;;18.20;78.10;;;;;;5060582;28;20433;-85
2023/06/01 19:16:15;;;;;;;8.47;7.67;;;18.20;78.70;;;;;;5052472;28;21124;-83
2023/06/01 19:18:49;;;;;;;6.70;5.87;;;18.10;77.60;;;;;;5057421;28;20437;-84
2023/06/01 19:21:17;;;;;;;7.27;6.70;;;17.30;76.10;;;;;;5065597;28;20903;-82
2023/06/01 19:23:51;;;;;;;7.23;6.20;;;17.70;77.80;;;;;;5072918;28;20412;-85
2023/06/01 19:26:20;;;;;;;6.63;6.07;;;17.60;78.50;;;;;;5058372;28;21013;-84
2023/06/01 19:28:50;;;;;;;6.27;5.67;;;17.50;78.90;;;;;;5067341;28;20527;-83
2023/06/01 19:31:21;;;;;;;9.33;6.80;;;17.60;79.50;;;;;;5069249;28;20452;-83
2023/06/01 19:33:48;;;;;;;6.30;5.60;;;18.00;80.20;;;;;;5063694;28;20429;-84
2023/06/01 19:36:42;;;;;;;8.50;6.17;;;17.50;80.30;;;;;;5055925;28;20558;-83
2023/06/01 19:39:14;;;;;;;8.90;5.60;;;17.50;81.30;;;;;;5065401;28;20417;-83
2023/06/01 19:41:41;;;;;;;6.77;6.37;;;17.50;81.40;;;;;;5060675;28;20498;-84
2023/06/01 19:44:18;;;;;;;8.00;6.17;;;17.30;81.40;;;;;;5094195;28;20401;-84
2023/06/01 19:46:45;;;;;;;6.73;6.10;;;17.50;82.40;;;;;;5084565;28;20449;-83
2023/06/01 19:49:14;;;;;;;8.20;5.80;;;17.30;83.30;;;;;;5087858;28;20424;-84
2023/06/01 19:51:40;;;;;;;5.23;5.03;;;16.80;83.40;;;;;;5066243;28;20452;-83
2023/06/01 19:54:06;;;;;;;7.03;6.00;;;17.30;84.60;;;;;;5066168;28;20783;-84
2023/06/01 19:56:36;;;;;;;6.90;6.30;;;17.30;85.10;;;;;;5055112;28;20510;-83
2023/06/01 19:59:07;;;;;;;6.03;5.63;;;17.30;86.10;;;;;;5057048;28;20206;-83
2023/06/01 20:01:37;;;;;;;5.90;5.60;;;17.20;86.10;;;;;;5058955;28;20453;-82
2023/06/01 20:04:04;;;;;;;6.67;6.17;;;17.10;87.00;;;;;;5056224;28;20966;-81
2023/06/01 20:06:30;;;;;;;5.80;5.40;;;16.60;86.60;;;;;;5056344;28;20452;-84
2023/06/01 20:09:16;;;;;;;5.43;5.10;;;16.70;97.10;;;;;;5066022;28;20447;-83
2023/06/01 20:11:50;;;;;;;6.87;5.90;;;17.00;88.70;;;;;;5060050;28;21065;-83
2023/06/01 20:14:28;;;;;;;6.17;5.57;;;16.90;89.40;;;;;;5057064;28;20499;-83
2023/06/01 20:16:55;;;;;;;7.17;5.73;;;16.90;90.00;;;;;;5058838;28;20492;-81
2023/06/01 20:19:22;;;;;;;5.50;4.87;;;16.70;90.10;;;;;;5054144;28;20451;-82
2023/06/01 20:21:55;;;;;;;7.27;6.03;;;16.70;90.70;;;;;;5058724;28;21024;-84
2023/06/01 20:24:26;;;;;;;5.80;5.10;;;16.80;90.80;;;;;;5056760;28;20798;-84
2023/06/01 20:26:55;;;;;;;5.90;5.37;;;16.20;90.60;;;;;;5063253;28;21038;-84
2023/06/01 20:29:21;;;;;;;6.07;5.60;;;16.70;91.20;;;;;;5059951;28;20555;-83
2023/06/01 20:31:46;;;;;;;6.97;6.10;;;16.20;91.10;;;;;;5066238;28;20933;-84
2023/06/01 20:34:14;;;;;;;6.63;5.93;;;16.60;92.00;;;;;;5066468;28;20440;-83
2023/06/01 20:36:42;;;;;;;7.87;5.93;;;16.70;91.50;;;;;;5067363;28;20210;-85
2023/06/01 20:39:09;;;;;;;5.47;5.10;;;16.90;99.90;;;;;;5075496;28;20444;-85
2023/06/01 20:41:35;;;;;;;6.97;6.57;;;16.60;91.90;;;;;;5074128;28;20435;-84
2023/06/01 20:44:02;;;;;;;6.53;6.00;;;16.40;92.20;;;;;;5065252;28;20443;-83
2023/06/01 20:46:29;;;;;;;6.30;5.70;;;16.20;93.40;;;;;;5076442;28;20519;-82
2023/06/01 20:49:00;;;;;;;8.03;5.53;;;16.00;94.00;;;;;;5062341;28;21218;-82
2023/06/01 20:51:31;;;;;;;8.83;5.60;;;16.00;94.80;;;;;;5058709;28;20443;-85
2023/06/01 20:54:00;;;;;;;5.80;5.40;;;15.90;95.00;;;;;;5061991;28;20445;-83
2023/06/01 20:56:40;;;;;;;8.10;7.30;;;17.10;96.60;;;;;;5058452;28;20479;-83
2023/06/01 20:59:07;;;;;;;5.73;5.33;;;16.00;96.20;;;;;;5063628;28;20441;-84
2023/06/01 21:01:38;;;;;;;7.00;6.60;;;15.50;96.40;;;;;;5059262;28;20509;-85
2023/06/01 21:04:07;;;;;;;7.03;6.43;;;15.70;97.30;;;;;;5065637;28;20788;-85
2023/06/01 21:06:33;;;;;;;7.50;7.00;;;15.00;97.80;;;;;;5059861;28;20603;-85
2023/06/01 21:09:00;;;;;;;6.60;6.10;;;15.50;98.90;;;;;;5057103;28;21002;-84
2023/06/01 21:11:28;;;;;;;8.13;6.47;;;15.40;99.30;;;;;;5058956;28;20696;-84
2023/06/01 21:13:54;;;;;;;6.37;5.70;;;15.60;99.90;;;;;;5059928;28;20412;-84
2023/06/01 21:16:20;;;;;;;7.17;6.60;;;15.00;99.90;;;;;;5059767;28;21103;-82
2023/06/01 21:18:46;;;;;;;8.10;7.17;;;15.10;99.90;;;;;;5062362;28;20416;-84
2023/06/01 21:21:11;;;;;;;10.00;8.20;;;15.40;99.90;;;;;;5056645;28;20437;-84
2023/06/01 21:23:37;;;;;;;7.10;6.33;;;15.10;99.90;;;;;;5053872;28;20225;-85
2023/06/01 21:26:03;;;;;;;10.00;7.73;;;15.10;99.90;;;;;;5056605;28;20187;-84
2023/06/01 21:28:29;;;;;;;7.20;6.50;;;15.10;99.90;;;;;;5054883;28;20558;-84
2023/06/01 21:30:54;;;;;;;8.57;7.67;;;16.70;99.90;;;;;;5060100;28;20440;-84
2023/06/01 21:33:23;;;;;;;6.93;6.33;;;14.90;99.90;;;;;;5053518;28;20179;-84
2023/06/01 21:35:49;;;;;;;7.60;6.90;;;15.10;99.90;;;;;;5058269;28;20566;-83
2023/06/01 21:38:16;;;;;;;7.10;6.70;;;14.70;99.90;;;;;;5053803;28;20461;-84
2023/06/01 21:40:42;;;;;;;8.23;7.00;;;15.70;99.90;;;;;;5061947;28;20445;-85
2023/06/01 21:43:08;;;;;;;6.30;5.70;;;15.00;99.90;;;;;;5069673;28;20517;-84
2023/06/01 21:45:34;;;;;;;7.60;7.20;;;15.00;99.90;;;;;;5084998;28;20435;-84
2023/06/01 21:48:00;;;;;;;5.10;4.67;;;14.70;99.90;;;;;;5076445;28;20344;-84
2023/06/01 21:50:28;;;;;;;5.60;5.40;;;15.00;99.90;;;;;;5066249;28;20191;-84
2023/06/01 21:52:55;;;;;;;5.20;5.00;;;15.30;99.90;;;;;;5057919;28;20453;-83
2023/06/01 21:55:21;;;;;;;6.90;5.87;;;14.70;99.90;;;;;;5060510;28;20453;-84
2023/06/01 21:57:47;;;;;;;6.80;6.40;;;15.50;99.90;;;;;;5057649;28;20449;-84
2023/06/01 22:00:15;;;;;;;17.30;16.47;;;15.10;99.90;;;;;;5065383;28;20504;-83
2023/06/01 22:02:41;;;;;;;35.60;33.60;;;14.50;99.90;;;;;;5058064;28;20193;-84
2023/06/01 22:05:07;;;;;;;29.47;27.73;;;14.80;99.90;;;;;;5066088;28;20464;-85
2023/06/01 22:07:33;;;;;;;23.90;22.40;;;14.00;99.90;;;;;;5062509;28;20547;-83
2023/06/01 22:10:00;;;;;;;22.33;21.10;;;14.00;99.90;;;;;;5065599;28;20429;-83
2023/06/01 22:12:26;;;;;;;33.40;31.33;;;14.40;99.90;;;;;;5062455;28;20199;-84
2023/06/01 22:14:51;;;;;;;22.87;21.40;;;13.90;99.90;;;;;;5067337;28;20439;-84
2023/06/01 22:17:17;;;;;;;17.40;16.30;;;14.30;99.90;;;;;;5066016;28;20673;-84
2023/06/01 22:19:43;;;;;;;48.27;45.67;;;14.60;99.90;;;;;;5065738;28;20218;-84
2023/06/01 22:22:09;;;;;;;52.63;49.57;;;14.60;99.90;;;;;;5060039;28;20214;-83
2023/06/01 22:24:35;;;;;;;44.70;41.70;;;14.20;99.90;;;;;;5080854;28;20178;-84
2023/06/01 22:27:01;;;;;;;26.17;24.67;;;14.10;99.90;;;;;;5069991;28;21149;-84
2023/06/01 22:29:29;;;;;;;26.13;24.87;;;15.40;99.90;;;;;;5079035;28;20182;-85
2023/06/01 22:31:54;;;;;;;50.37;47.47;;;14.40;99.90;;;;;;5068223;28;20958;-85
2023/06/01 22:34:20;;;;;;;41.13;38.83;;;14.50;99.90;;;;;;5083400;28;20413;-84
2023/06/01 22:36:46;;;;;;;46.40;44.00;;;14.20;99.90;;;;;;5072833;28;20216;-82
2023/06/01 22:39:11;;;;;;;63.53;60.87;;;14.50;99.90;;;;;;5093410;28;20182;-84
2023/06/01 22:41:37;;;;;;;55.43;52.63;;;16.20;99.90;;;;;;5064658;28;20190;-84
2023/06/01 22:44:03;;;;;;;69.30;66.00;;;14.80;99.90;;;;;;5079587;28;20184;-84
2023/06/01 22:46:28;;;;;;;96.43;91.80;;;14.40;99.90;;;;;;5073653;28;20202;-83
2023/06/01 22:48:55;;;;;;;116.33;110.90;;;14.00;99.90;;;;;;5075378;28;20203;-83
2023/06/01 22:51:24;;;;;;;98.93;94.13;;;14.20;99.90;;;;;;5068980;28;20202;-84
2023/06/01 22:53:50;;;;;;;109.40;104.37;;;14.20;99.90;;;;;;5071205;28;20443;-83
2023/06/01 22:56:16;;;;;;;185.27;174.33;;;14.30;99.90;;;;;;5070880;28;20459;-85
2023/06/01 22:58:41;;;;;;;143.40;136.67;;;14.30;99.90;;;;;;5062445;28;20569;-84
2023/06/01 23:01:08;;;;;;;181.23;171.53;;;14.30;99.90;;;;;;5067132;28;20186;-84
2023/06/01 23:03:34;;;;;;;195.97;186.17;;;14.10;99.90;;;;;;5063559;28;20436;-84
2023/06/01 23:06:02;;;;;;;194.40;184.67;;;14.20;99.90;;;;;;5073213;28;21177;-83
2023/06/01 23:08:31;;;;;;;167.23;158.60;;;14.20;99.90;;;;;;5067446;28;20455;-83
2023/06/01 23:10:59;;;;;;;164.50;155.67;;;13.90;99.90;;;;;;5074491;28;20519;-83
2023/06/01 23:13:27;;;;;;;171.07;162.13;;;14.20;99.90;;;;;;5065721;28;20436;-83
2023/06/01 23:15:54;;;;;;;204.97;193.77;;;14.10;99.90;;;;;;5064547;28;21053;-84
2023/06/01 23:18:20;;;;;;;128.47;122.17;;;13.80;99.90;;;;;;5074209;28;20466;-84
2023/06/01 23:20:46;;;;;;;173.83;164.77;;;13.90;99.90;;;;;;5072128;28;20921;-85
2023/06/01 23:23:13;;;;;;;128.60;122.17;;;14.00;99.90;;;;;;5064639;28;20483;-85
2023/06/01 23:25:39;;;;;;;132.67;126.17;;;13.70;99.90;;;;;;5075351;28;20214;-83
2023/06/01 23:28:07;;;;;;;142.87;135.23;;;13.70;99.90;;;;;;5062396;28;20959;-83
2023/06/01 23:30:33;;;;;;;170.07;162.03;;;13.80;99.90;;;;;;5065647;28;20228;-84
2023/06/01 23:32:58;;;;;;;127.40;121.20;;;14.00;99.90;;;;;;5074887;28;21009;-84
2023/06/01 23:35:25;;;;;;;182.00;172.87;;;13.90;99.90;;;;;;5075317;28;20405;-84
2023/06/01 23:37:52;;;;;;;332.87;314.00;;;13.50;99.90;;;;;;5069593;28;20217;-83
2023/06/01 23:40:21;;;;;;;284.17;268.10;;;14.20;99.90;;;;;;5088973;28;20512;-83
2023/06/01 23:42:47;;;;;;;309.43;291.43;;;13.80;99.90;;;;;;5088435;28;20440;-84
2023/06/01 23:45:15;;;;;;;206.87;196.17;;;13.70;99.90;;;;;;5093768;28;20439;-82
2023/06/01 23:47:45;;;;;;;193.27;182.27;;;14.30;99.90;;;;;;5061777;28;20974;-84
2023/06/01 23:50:11;;;;;;;254.47;239.57;;;13.90;99.90;;;;;;5064156;28;20497;-83
2023/06/01 23:52:37;;;;;;;316.03;298.63;;;14.50;99.90;;;;;;5060234;28;20904;-84
2023/06/01 23:55:03;;;;;;;328.53;309.10;;;13.90;99.90;;;;;;5067242;28;20529;-84
2023/06/01 23:57:32;;;;;;;341.13;321.73;;;13.90;99.90;;;;;;5071313;28;20817;-84
2023/06/01 23:59:57;;;;;;;331.37;312.53;;;14.00;99.90;;;;;;5073215;28;20501;-84
